createdAt,value
2018-07-06T00:05:09.841Z,18.70
2018-07-06T00:10:23.088Z,18.80
2018-07-06T00:13:02.687Z,18.70
2018-07-06T00:18:15.819Z,18.60
2018-07-06T00:20:55.348Z,18.60
2018-07-06T00:23:34.935Z,18.50
2018-07-06T00:26:14.590Z,18.50
2018-07-06T00:28:54.154Z,18.50
2018-07-06T00:34:07.460Z,18.40
2018-07-06T00:36:47.185Z,18.40
2018-07-06T00:39:26.565Z,18.30
2018-07-06T00:42:06.942Z,18.30
2018-07-06T00:44:46.422Z,18.30
2018-07-06T00:47:25.934Z,18.20
2018-07-06T00:50:05.459Z,18.20
2018-07-06T00:52:44.855Z,18.10
2018-07-06T00:55:24.528Z,18.00
2018-07-06T00:58:04.163Z,17.90
2018-07-06T01:00:43.690Z,17.80
2018-07-06T01:03:23.204Z,17.70
2018-07-06T01:06:02.663Z,17.70
2018-07-06T01:08:42.036Z,17.70
2018-07-06T01:11:21.558Z,17.60
2018-07-06T01:14:01.041Z,17.60
2018-07-06T01:16:40.557Z,17.50
2018-07-06T01:19:20.243Z,17.50
2018-07-06T01:21:59.795Z,17.50
2018-07-06T01:24:39.339Z,17.40
2018-07-06T01:27:18.809Z,17.40
2018-07-06T01:29:58.371Z,17.30
2018-07-06T01:32:37.853Z,17.30
2018-07-06T01:35:17.456Z,17.30
2018-07-06T01:37:57.044Z,17.20
2018-07-06T01:40:36.486Z,17.10
2018-07-06T01:43:16.019Z,17.10
2018-07-06T01:45:55.671Z,17.10
2018-07-06T01:48:35.091Z,17.00
2018-07-06T01:51:14.810Z,16.90
2018-07-06T01:53:54.427Z,16.90
2018-07-06T01:56:33.921Z,16.80
2018-07-06T01:59:13.418Z,16.80
2018-07-06T02:01:52.929Z,16.70
2018-07-06T02:04:32.503Z,16.70
2018-07-06T02:09:45.440Z,16.70
2018-07-06T02:12:25.170Z,16.70
2018-07-06T02:15:04.775Z,16.70
2018-07-06T02:17:44.344Z,16.60
2018-07-06T02:20:23.906Z,16.50
2018-07-06T02:23:03.457Z,16.50
2018-07-06T02:25:42.867Z,16.40
2018-07-06T02:28:22.382Z,16.40
2018-07-06T02:31:02.135Z,16.40
2018-07-06T02:33:41.893Z,16.40
2018-07-06T02:36:21.741Z,16.40
2018-07-06T02:39:01.436Z,16.40
2018-07-06T02:41:40.863Z,16.40
2018-07-06T02:44:20.300Z,16.40
2018-07-06T02:46:59.747Z,16.40
2018-07-06T02:52:13.017Z,16.40
2018-07-06T02:57:26.047Z,16.50
2018-07-06T03:00:05.507Z,16.50
2018-07-06T03:02:44.913Z,16.50
2018-07-06T03:05:24.355Z,16.40
2018-07-06T03:08:03.839Z,16.50
2018-07-06T03:10:43.346Z,16.50
2018-07-06T03:15:56.391Z,16.60
2018-07-06T03:18:35.817Z,16.60
2018-07-06T03:21:15.642Z,16.60
2018-07-06T03:23:55.407Z,16.60
2018-07-06T03:26:35.595Z,16.70
2018-07-06T03:29:15.074Z,16.70
2018-07-06T03:31:54.638Z,16.70
2018-07-06T03:34:34.233Z,16.70
2018-07-06T03:37:13.753Z,16.70
2018-07-06T03:39:53.214Z,16.80
2018-07-06T03:42:32.771Z,16.80
2018-07-06T03:47:46.047Z,16.80
2018-07-06T03:52:59.172Z,17.00
2018-07-06T03:55:38.699Z,16.90
2018-07-06T03:58:18.307Z,17.00
2018-07-06T04:00:58.061Z,17.00
2018-07-06T04:03:37.639Z,17.00
2018-07-06T04:08:50.799Z,17.00
2018-07-06T04:16:37.835Z,17.00
2018-07-06T04:19:17.403Z,17.00
2018-07-06T04:21:57.071Z,17.10
2018-07-06T04:24:36.670Z,17.10
2018-07-06T04:27:16.128Z,17.10
2018-07-06T04:32:29.436Z,17.20
2018-07-06T04:35:09.138Z,17.10
2018-07-06T04:37:49.039Z,17.10
2018-07-06T04:40:28.574Z,17.10
2018-07-06T04:43:08.263Z,17.10
2018-07-06T04:45:48.360Z,17.20
2018-07-06T04:48:27.912Z,17.10
2018-07-06T04:51:07.451Z,17.10
2018-07-06T04:53:46.899Z,17.10
2018-07-06T04:56:26.414Z,17.20
2018-07-06T05:01:39.673Z,17.30
2018-07-06T05:04:19.300Z,17.20
2018-07-06T05:06:58.898Z,17.10
2018-07-06T05:09:38.507Z,17.20
2018-07-06T05:12:18.001Z,17.20
2018-07-06T05:17:31.099Z,17.30
2018-07-06T05:20:10.645Z,17.30
2018-07-06T05:22:50.419Z,17.40
2018-07-06T05:25:30.252Z,17.40
2018-07-06T05:30:44.083Z,17.50
2018-07-06T05:33:23.527Z,17.50
2018-07-06T05:36:03.323Z,17.50
2018-07-06T05:38:42.919Z,17.50
2018-07-06T05:41:22.563Z,17.40
2018-07-06T05:49:10.235Z,17.50
2018-07-06T05:51:49.912Z,17.60
2018-07-06T05:54:29.744Z,17.50
2018-07-06T05:57:09.212Z,17.40
2018-07-06T05:59:48.700Z,17.40
2018-07-06T06:05:01.842Z,17.60
2018-07-06T06:09:57.391Z,17.60
2018-07-06T06:12:25.459Z,17.50
2018-07-06T06:14:53.504Z,17.50
2018-07-06T06:17:21.692Z,17.50
2018-07-06T06:19:49.666Z,17.50
2018-07-06T06:22:17.856Z,17.60
2018-07-06T06:24:46.560Z,17.60
2018-07-06T06:27:21.271Z,17.60
2018-07-06T06:29:50.358Z,17.70
2018-07-06T06:32:18.360Z,17.70
2018-07-06T06:34:46.384Z,17.70
2018-07-06T06:37:14.399Z,17.70
2018-07-06T06:39:42.366Z,17.80
2018-07-06T06:42:10.411Z,17.80
2018-07-06T06:47:06.272Z,17.90
2018-07-06T06:49:34.304Z,18.00
2018-07-06T06:52:02.435Z,17.90
2018-07-06T06:56:58.359Z,18.00
2018-07-06T06:59:26.343Z,18.10
2018-07-06T07:01:54.425Z,18.10
2018-07-06T07:04:22.668Z,18.10
2018-07-06T07:06:50.667Z,18.00
2018-07-06T07:09:18.618Z,18.00
2018-07-06T07:14:14.789Z,17.90
2018-07-06T07:16:42.686Z,18.10
2018-07-06T07:19:10.636Z,18.20
2018-07-06T07:21:38.718Z,18.20
2018-07-06T07:24:06.722Z,18.20
2018-07-06T07:26:34.753Z,18.30
2018-07-06T07:29:02.802Z,18.30
2018-07-06T07:31:30.763Z,18.40
2018-07-06T07:36:26.579Z,18.40
2018-07-06T07:38:54.734Z,18.30
2018-07-06T07:41:22.712Z,18.40
2018-07-06T07:43:50.670Z,18.50
2018-07-06T07:46:18.671Z,18.70
2018-07-06T07:48:46.698Z,18.90
2018-07-06T07:52:04.642Z,19.00
2018-07-06T07:54:39.295Z,19.10
2018-07-06T07:57:07.707Z,19.30
2018-07-06T07:59:35.776Z,19.40
2018-07-06T08:02:04.228Z,19.50
2018-07-06T08:04:32.223Z,19.60
2018-07-06T08:07:00.199Z,19.80
2018-07-06T08:09:28.465Z,19.80
2018-07-06T08:14:26.419Z,19.90
2018-07-06T08:16:54.359Z,20.00
2018-07-06T08:19:22.620Z,20.00
2018-07-06T08:21:50.935Z,20.10
2018-07-06T08:24:19.645Z,20.10
2018-07-06T08:26:47.792Z,19.90
2018-07-06T08:29:15.771Z,19.70
2018-07-06T08:31:44.061Z,19.70
2018-07-06T08:34:23.709Z,19.90
2018-07-06T08:37:29.778Z,20.00
2018-07-06T08:39:58.548Z,19.90
2018-07-06T08:42:27.800Z,19.90
2018-07-06T08:44:56.762Z,20.00
2018-07-06T08:47:24.705Z,20.10
2018-07-06T08:49:53.290Z,20.10
2018-07-06T08:52:21.308Z,20.20
2018-07-06T08:57:18.247Z,20.30
2018-07-06T08:59:46.359Z,20.40
2018-07-06T09:02:14.388Z,20.50
2018-07-06T09:04:42.362Z,20.40
2018-07-06T09:09:38.372Z,20.60
2018-07-06T09:12:06.682Z,20.60
2018-07-06T09:14:34.724Z,20.70
2018-07-06T09:17:02.736Z,20.80
2018-07-06T09:19:30.768Z,20.60
2018-07-06T09:21:58.845Z,20.50
2018-07-06T09:24:26.902Z,20.80
2018-07-06T09:26:54.863Z,20.80
2018-07-06T09:29:22.910Z,20.90
2018-07-06T09:31:51.018Z,21.00
2018-07-06T09:34:19.090Z,20.90
2018-07-06T09:36:47.094Z,21.00
2018-07-06T09:39:15.080Z,20.90
2018-07-06T09:41:43.499Z,20.90
2018-07-06T09:44:11.207Z,20.80
2018-07-06T09:49:08.065Z,20.80
2018-07-06T09:51:36.120Z,20.60
2018-07-06T09:54:04.176Z,20.50
2018-07-06T09:56:32.117Z,20.40
2018-07-06T09:59:00.217Z,20.40
2018-07-06T10:03:56.595Z,20.40
2018-07-06T10:06:24.832Z,20.60
2018-07-06T10:08:53.656Z,20.90
2018-07-06T10:11:22.036Z,21.10
2018-07-06T10:13:50.271Z,21.10
2018-07-06T10:16:18.463Z,21.00
2018-07-06T10:18:46.545Z,21.00
2018-07-06T10:21:14.572Z,20.80
2018-07-06T10:23:42.556Z,20.70
2018-07-06T10:26:10.660Z,20.50
2018-07-06T10:30:59.919Z,20.40
2018-07-06T10:33:27.951Z,20.30
2018-07-06T10:35:56.082Z,20.40
2018-07-06T10:38:24.135Z,20.50
2018-07-06T10:40:52.423Z,20.30
2018-07-06T10:43:20.407Z,20.20
2018-07-06T10:48:16.260Z,20.30
2018-07-06T10:50:44.368Z,20.30
2018-07-06T10:55:40.371Z,20.20
2018-07-06T10:58:08.336Z,20.20
2018-07-06T11:00:36.452Z,20.30
2018-07-06T11:03:04.440Z,20.40
2018-07-06T11:05:32.519Z,20.60
2018-07-06T11:08:00.636Z,20.70
2018-07-06T11:10:28.684Z,20.50
2018-07-06T11:12:56.639Z,20.40
2018-07-06T11:15:24.775Z,20.40
2018-07-06T11:17:52.880Z,20.40
2018-07-06T11:20:21.384Z,20.50
2018-07-06T11:25:19.092Z,20.70
2018-07-06T11:30:15.117Z,20.60
2018-07-06T11:32:43.152Z,20.40
2018-07-06T11:35:11.576Z,20.30
2018-07-06T11:37:39.631Z,20.30
2018-07-06T11:40:07.650Z,20.30
2018-07-06T11:42:35.647Z,20.50
2018-07-06T11:45:03.722Z,20.60
2018-07-06T11:47:31.639Z,20.90
2018-07-06T11:52:28.240Z,20.80
2018-07-06T11:54:57.256Z,20.70
2018-07-06T11:57:25.408Z,20.70
2018-07-06T12:02:21.315Z,20.50
2018-07-06T12:04:49.398Z,20.40
2018-07-06T12:07:17.404Z,20.30
2018-07-06T12:09:46.226Z,20.30
2018-07-06T12:12:14.621Z,20.50
2018-07-06T12:14:42.899Z,20.70
2018-07-06T12:17:10.982Z,20.80
2018-07-06T12:19:39.319Z,20.80
2018-07-06T12:22:07.342Z,20.70
2018-07-06T12:24:35.399Z,20.70
2018-07-06T12:27:03.964Z,20.70
2018-07-06T12:29:32.322Z,20.90
2018-07-06T12:32:00.530Z,20.90
2018-07-06T12:34:28.674Z,21.00
2018-07-06T12:36:57.066Z,21.10
2018-07-06T12:39:26.880Z,21.20
2018-07-06T12:41:55.111Z,21.10
2018-07-06T12:44:23.369Z,20.90
2018-07-06T12:46:51.376Z,20.80
2018-07-06T12:49:19.585Z,20.70
2018-07-06T12:51:47.619Z,20.80
2018-07-06T12:54:15.616Z,21.00
2018-07-06T12:56:43.647Z,21.40
2018-07-06T13:01:39.547Z,21.60
2018-07-06T13:04:07.619Z,21.50
2018-07-06T13:06:35.893Z,21.50
2018-07-06T13:11:32.286Z,21.80
2018-07-06T13:14:00.609Z,22.00
2018-07-06T13:16:29.138Z,22.30
2018-07-06T13:18:58.204Z,22.30
2018-07-06T13:21:26.665Z,22.20
2018-07-06T13:26:22.612Z,22.30
2018-07-06T13:31:18.499Z,22.60
2018-07-06T13:33:46.559Z,22.40
2018-07-06T13:36:14.979Z,22.40
2018-07-06T13:38:43.053Z,22.10
2018-07-06T13:41:11.056Z,22.20
2018-07-06T13:43:39.030Z,22.30
2018-07-06T13:46:07.176Z,22.40
2018-07-06T13:48:35.230Z,22.50
2018-07-06T13:51:03.367Z,22.70
2018-07-06T13:55:59.218Z,22.50
2018-07-06T14:00:55.088Z,22.90
2018-07-06T14:05:51.030Z,23.70
2018-07-06T14:08:19.096Z,23.60
2018-07-06T14:10:47.043Z,23.80
2018-07-06T14:13:16.416Z,23.50
2018-07-06T14:15:45.204Z,23.30
2018-07-06T14:18:13.329Z,23.40
2018-07-06T14:20:41.638Z,23.40
2018-07-06T14:23:09.847Z,23.30
2018-07-06T14:25:37.890Z,23.40
2018-07-06T14:28:06.265Z,23.10
2018-07-06T14:30:34.155Z,23.10
2018-07-06T14:35:32.922Z,23.50
2018-07-06T14:40:29.019Z,23.70
2018-07-06T14:43:01.457Z,23.90
2018-07-06T14:45:29.524Z,24.20
2018-07-06T14:50:25.914Z,24.20
2018-07-06T14:52:54.279Z,24.10
2018-07-06T14:55:22.651Z,24.40
2018-07-06T14:57:50.847Z,24.30
2018-07-06T15:00:18.943Z,24.30
2018-07-06T15:05:15.464Z,24.40
2018-07-06T15:07:43.693Z,24.50
2018-07-06T15:12:39.693Z,24.40
2018-07-06T15:15:07.706Z,24.30
2018-07-06T15:17:35.794Z,24.10
2018-07-06T15:22:31.582Z,23.60
2018-07-06T15:24:59.638Z,23.60
2018-07-06T15:27:27.864Z,23.90
2018-07-06T15:29:55.988Z,24.00
2018-07-06T15:32:23.947Z,24.10
2018-07-06T15:37:19.963Z,24.10
2018-07-06T15:39:47.995Z,23.90
2018-07-06T15:42:15.981Z,23.80
2018-07-06T15:47:14.465Z,25.00
2018-07-06T15:49:42.575Z,25.00
2018-07-06T15:52:10.611Z,24.80
2018-07-06T15:54:38.706Z,24.70
2018-07-06T15:57:06.874Z,24.60
2018-07-06T15:59:34.883Z,24.40
2018-07-06T16:02:03.143Z,24.30
2018-07-06T16:04:31.662Z,24.20
2018-07-06T16:09:27.587Z,24.50
2018-07-06T16:11:55.768Z,24.50
2018-07-06T16:16:51.968Z,24.40
2018-07-06T16:19:20.739Z,24.40
2018-07-06T16:24:16.550Z,26.20
2018-07-06T16:26:44.659Z,28.20
2018-07-06T16:29:12.741Z,29.90
2018-07-06T16:31:40.950Z,29.20
2018-07-06T16:34:09.019Z,29.80
2018-07-06T16:36:37.132Z,30.50
2018-07-06T16:41:33.519Z,29.00
2018-07-06T16:44:01.687Z,29.20
2018-07-06T16:46:30.765Z,30.00
2018-07-06T16:48:58.732Z,32.10
2018-07-06T16:51:26.928Z,34.20
2018-07-06T16:53:55.019Z,34.60
2018-07-06T16:56:23.092Z,35.30
2018-07-06T16:58:51.249Z,34.70
2018-07-06T17:01:19.947Z,34.50
2018-07-06T17:03:48.071Z,34.20
2018-07-06T17:06:16.039Z,34.50
2018-07-06T17:08:44.285Z,34.90
2018-07-06T17:11:12.426Z,34.40
2018-07-06T17:13:40.473Z,34.80
2018-07-06T17:16:08.459Z,35.60
2018-07-06T17:18:36.474Z,35.00
2018-07-06T17:21:05.707Z,34.10
2018-07-06T17:23:33.758Z,33.90
2018-07-06T17:26:03.040Z,33.80
2018-07-06T17:28:31.151Z,33.20
2018-07-06T17:30:59.193Z,32.80
2018-07-06T17:33:27.716Z,33.30
2018-07-06T17:35:55.743Z,33.60
2018-07-06T17:38:23.832Z,32.90
2018-07-06T17:40:51.857Z,33.40
2018-07-06T17:43:20.164Z,34.00
2018-07-06T17:45:48.846Z,34.60
2018-07-06T17:48:17.368Z,34.90
2018-07-06T17:50:45.495Z,34.50
2018-07-06T17:55:41.400Z,34.60
2018-07-06T17:58:09.355Z,34.50
2018-07-06T18:00:37.405Z,33.90
2018-07-06T18:03:05.405Z,33.20
2018-07-06T18:05:33.391Z,32.80
2018-07-06T18:08:01.360Z,32.30
2018-07-06T18:10:29.919Z,32.40
2018-07-06T18:12:57.992Z,31.90
2018-07-06T18:15:25.995Z,31.30
2018-07-06T18:17:54.020Z,30.60
2018-07-06T18:20:22.276Z,31.10
2018-07-06T18:22:50.999Z,31.10
2018-07-06T18:25:19.811Z,30.80
2018-07-06T18:30:16.634Z,30.20
2018-07-06T18:32:44.904Z,29.80
2018-07-06T18:37:42.061Z,29.00
2018-07-06T18:42:38.155Z,28.10
2018-07-06T18:47:34.232Z,26.50
2018-07-06T18:50:02.553Z,25.60
2018-07-06T18:52:31.023Z,24.90
2018-07-06T18:54:59.039Z,24.50
2018-07-06T18:57:27.193Z,24.10
2018-07-06T18:59:55.873Z,23.70
2018-07-06T19:02:24.080Z,23.40
2018-07-06T19:04:52.331Z,23.30
2018-07-06T19:07:20.656Z,23.10
2018-07-06T19:09:48.640Z,22.90
2018-07-06T19:12:16.862Z,22.80
2018-07-06T19:14:44.987Z,22.60
2018-07-06T19:17:13.713Z,22.50
2018-07-06T19:19:41.876Z,22.40
2018-07-06T19:22:10.311Z,22.30
2018-07-06T19:24:39.801Z,22.10
2018-07-06T19:27:07.926Z,22.00
2018-07-06T19:29:36.209Z,21.80
2018-07-06T19:32:04.193Z,21.70
2018-07-06T19:34:32.547Z,21.60
2018-07-06T19:39:28.852Z,21.40
2018-07-06T19:41:56.945Z,21.40
2018-07-06T19:44:26.065Z,21.30
2018-07-06T19:46:54.048Z,21.20
2018-07-06T19:49:22.032Z,21.10
2018-07-06T19:51:50.111Z,21.00
2018-07-06T19:54:18.105Z,20.90
2018-07-06T19:59:14.275Z,20.80
2018-07-06T20:01:42.704Z,20.70
2018-07-06T20:06:38.831Z,20.60
2018-07-06T20:09:07.261Z,20.60
2018-07-06T20:11:35.570Z,20.50
2018-07-06T20:14:04.110Z,20.40
2018-07-06T20:16:32.288Z,20.40
2018-07-06T20:19:00.744Z,20.30
2018-07-06T20:21:28.914Z,20.20
2018-07-06T20:23:57.000Z,20.20
2018-07-06T20:26:25.736Z,20.10
2018-07-06T20:28:54.220Z,20.00
2018-07-06T20:34:13.306Z,20.00
2018-07-06T20:36:41.556Z,19.90
2018-07-06T20:39:09.817Z,19.80
2018-07-06T20:41:38.134Z,19.80
2018-07-06T20:44:06.228Z,19.70
2018-07-06T20:46:34.289Z,19.60
2018-07-06T20:49:03.846Z,19.50
2018-07-06T20:51:32.688Z,19.50
2018-07-06T20:54:00.834Z,19.40
2018-07-06T20:56:28.839Z,19.40
2018-07-06T20:58:57.035Z,19.30
2018-07-06T21:01:25.178Z,19.30
2018-07-06T21:03:54.199Z,19.20
2018-07-06T21:06:22.304Z,19.10
2018-07-06T21:08:50.550Z,19.10
2018-07-06T21:11:19.573Z,19.00
2018-07-06T21:13:47.644Z,18.90
2018-07-06T21:16:15.745Z,18.90
2018-07-06T21:18:43.953Z,18.80
2018-07-06T21:21:12.168Z,18.80
2018-07-06T21:28:36.337Z,18.60
2018-07-06T21:31:05.979Z,18.50
2018-07-06T21:33:34.110Z,18.50
2018-07-06T21:36:02.146Z,18.40
2018-07-06T21:38:30.411Z,18.30
2018-07-06T21:40:58.994Z,18.30
2018-07-06T21:43:27.150Z,18.30
2018-07-06T21:45:55.288Z,18.30
2018-07-06T21:48:23.436Z,18.20
2018-07-06T21:50:51.515Z,18.10
2018-07-06T21:53:19.661Z,18.00
2018-07-06T21:55:47.684Z,18.00
2018-07-06T21:58:15.748Z,17.90
2018-07-06T22:00:44.197Z,17.90
2018-07-06T22:03:12.898Z,17.80
2018-07-06T22:05:41.869Z,17.80
2018-07-06T22:08:09.844Z,17.70
2018-07-06T22:10:38.428Z,17.60
2018-07-06T22:13:07.019Z,17.60
2018-07-06T22:15:41.472Z,17.50
2018-07-06T22:18:09.515Z,17.50
2018-07-06T22:20:38.046Z,17.40
2018-07-06T22:23:06.241Z,17.40
2018-07-06T22:25:35.037Z,17.30
2018-07-06T22:28:03.156Z,17.30
2018-07-06T22:32:58.977Z,17.20
2018-07-06T22:35:27.060Z,17.10
2018-07-06T22:37:55.271Z,17.10
2018-07-06T22:40:23.579Z,17.00
2018-07-06T22:45:19.992Z,17.00
2018-07-06T22:47:48.065Z,16.90
2018-07-06T22:50:16.076Z,16.80
2018-07-06T22:52:44.068Z,16.80
2018-07-06T22:55:12.133Z,16.70
2018-07-06T22:57:40.140Z,16.70
2018-07-06T23:00:08.228Z,16.60
2018-07-06T23:02:36.364Z,16.60
2018-07-06T23:05:10.612Z,16.50
2018-07-06T23:07:39.405Z,16.50
2018-07-06T23:10:07.605Z,16.40
2018-07-06T23:12:36.037Z,16.30
2018-07-06T23:15:04.249Z,16.30
2018-07-06T23:20:00.868Z,16.20
2018-07-06T23:27:31.900Z,16.00
2018-07-06T23:29:59.934Z,16.00
2018-07-06T23:32:27.917Z,15.90
2018-07-06T23:34:55.942Z,15.80
2018-07-06T23:37:23.886Z,15.80
2018-07-06T23:39:52.040Z,15.80
2018-07-06T23:44:48.089Z,15.70
2018-07-06T23:47:16.154Z,15.70
2018-07-06T23:49:44.134Z,15.60
2018-07-06T23:52:12.094Z,15.60
2018-07-06T23:54:40.328Z,15.60
2018-07-06T23:57:08.432Z,15.50
2018-07-06T23:59:36.449Z,15.50
